Time;durP1;ratioP1;P1;durP2;ratioP2;P2;SDS_P1;SDS_P2;PMS_P1;PMS_P2;Temp;Humidity;BMP_temperature;BMP_pressure;BME280_temperature;BME280_humidity;BME280_pressure;Samples;Min_cycle;Max_cycle;Signal;HPM_P1;HPM_P2
2022/02/22 00:01:48;;;;;;;3.13;3.03;;;;;;;5.05;84.82;101170.97;5995189;23;20114;-67
2022/02/22 00:04:15;;;;;;;3.10;3.00;;;;;;;5.05;84.93;101181.38;6028527;23;20033;-66
2022/02/22 00:06:41;;;;;;;3.83;3.63;;;;;;;5.06;83.97;101182.25;6006941;23;20029;-67
2022/02/22 00:09:08;;;;;;;4.22;4.03;;;;;;;4.48;84.10;101095.91;6019715;23;20050;-67
2022/02/22 00:11:34;;;;;;;3.10;3.00;;;;;;;4.97;85.27;101184.16;6027299;23;20086;-67
2022/02/22 00:14:00;;;;;;;4.38;4.18;;;;;;;4.95;84.26;101190.25;6023804;23;20110;-67
2022/02/22 00:16:27;;;;;;;3.10;3.00;;;;;;;4.94;85.17;101191.16;6037951;23;20081;-67
2022/02/22 00:18:53;;;;;;;3.42;3.33;;;;;;;4.37;85.51;101116.91;6030526;23;20090;-66
2022/02/22 00:21:20;;;;;;;3.42;3.33;;;;;;;4.89;84.84;101192.97;5975056;23;20035;-68
2022/02/22 00:23:46;;;;;;;3.13;3.03;;;;;;;4.83;85.43;101196.59;6010831;23;20018;-67
2022/02/22 00:26:13;;;;;;;3.10;3.00;;;;;;;4.80;85.94;101199.22;6016284;23;20030;-67
2022/02/22 00:28:39;;;;;;;2.92;2.83;;;;;;;4.84;85.52;101207.84;5974701;23;20066;-68
2022/02/22 00:31:06;;;;;;;4.55;4.35;;;;;;;4.48;86.05;101158.28;6012754;23;20031;-67
2022/02/22 00:33:33;;;;;;;3.00;2.90;;;;;;;4.88;85.37;101220.75;6031840;23;20049;-67
2022/02/22 00:36:00;;;;;;;4.55;4.35;;;;;;;4.42;86.00;101153.22;6013250;23;20015;-67
2022/02/22 00:38:26;;;;;;;5.93;3.55;;;;;;;4.56;85.49;101185.81;5966868;23;20050;-68
2022/02/22 00:40:52;;;;;;;4.13;3.95;;;;;;;4.24;85.85;101155.25;6033353;23;20038;-67
2022/02/22 00:43:19;;;;;;;3.85;3.55;;;;;;;4.76;86.09;101239.19;6007226;23;20036;-67
2022/02/22 00:45:46;;;;;;;2.90;2.80;;;;;;;4.44;86.12;101167.88;6003822;23;20024;-67
2022/02/22 00:48:12;;;;;;;3.30;3.15;;;;;;;4.76;85.75;101232.25;6031616;23;20523;-67
2022/02/22 00:50:39;;;;;;;4.57;3.20;;;;;;;4.69;86.53;101225.47;6014886;23;20083;-68
2022/02/22 00:53:05;;;;;;;5.05;4.85;;;;;;;4.75;85.62;101253.94;5997028;23;20030;-67
2022/02/22 00:55:32;;;;;;;3.40;3.30;;;;;;;4.81;86.09;101237.34;6020916;23;20326;-67
2022/02/22 00:57:59;;;;;;;4.60;4.40;;;;;;;4.76;85.02;101247.84;5993641;23;20074;-67
2022/02/22 01:00:25;;;;;;;3.10;3.00;;;;;;;4.41;85.62;101193.94;6029961;23;20135;-67
2022/02/22 01:02:54;;;;;;;4.43;4.22;;;;;;;4.67;85.34;101224.63;6009300;23;20011;-67
2022/02/22 01:05:20;;;;;;;3.20;3.10;;;;;;;4.21;84.85;101157.94;6020292;23;20019;-67
2022/02/22 01:07:47;;;;;;;2.75;2.65;;;;;;;4.36;85.27;101167.16;6008654;23;20012;-67
2022/02/22 01:10:14;;;;;;;3.30;3.20;;;;;;;4.36;84.67;101193.16;6018482;23;20038;-67
2022/02/22 01:12:40;;;;;;;3.17;3.08;;;;;;;4.09;84.51;101156.41;5997337;23;20031;-66
2022/02/22 01:15:07;;;;;;;5.03;4.82;;;;;;;4.21;85.02;101168.31;6021669;23;20056;-67
2022/02/22 01:17:34;;;;;;;3.05;2.95;;;;;;;4.53;84.81;101240.47;6005086;23;20136;-67
2022/02/22 01:20:05;;;;;;;4.18;3.97;;;;;;;4.77;85.17;101275.56;5977542;23;20027;-68
2022/02/22 01:22:32;;;;;;;2.90;2.80;;;;;;;3.82;85.65;101126.56;6030511;23;20322;-67
2022/02/22 01:25:00;;;;;;;6.78;6.40;;;;;;;4.54;86.49;101272.53;6013611;23;20479;-67
2022/02/22 01:27:27;;;;;;;2.90;2.80;;;;;;;3.89;86.63;101167.16;6002770;23;20027;-67
2022/02/22 01:29:53;;;;;;;3.45;3.33;;;;;;;4.33;86.44;101242.56;6032095;23;20208;-67
2022/02/22 01:32:20;;;;;;;3.10;3.00;;;;;;;4.21;86.43;101220.28;6045118;23;20015;-67
2022/02/22 01:34:49;;;;;;;2.97;2.88;;;;;;;4.52;86.38;101279.50;6031636;23;20036;-67
2022/02/22 01:37:15;;;;;;;3.20;3.10;;;;;;;4.49;87.39;101277.81;6038013;23;20025;-67
2022/02/22 01:39:42;;;;;;;3.00;2.90;;;;;;;4.32;86.56;101246.06;5987759;23;20027;-67
2022/02/22 01:42:08;;;;;;;4.35;4.15;;;;;;;4.51;87.39;101295.97;6042974;23;20034;-67
2022/02/22 01:44:35;;;;;;;2.90;2.80;;;;;;;4.44;88.32;101292.63;6015590;23;20086;-67
2022/02/22 01:47:04;;;;;;;4.55;4.35;;;;;;;4.45;87.44;101301.25;6041010;23;20030;-67
2022/02/22 01:49:32;;;;;;;3.00;2.90;;;;;;;3.90;88.29;101212.13;6031009;23;20158;-66
2022/02/22 01:52:00;;;;;;;4.85;4.60;;;;;;;4.51;88.77;101299.44;6023411;23;20464;-67
2022/02/22 01:54:26;;;;;;;2.90;2.80;;;;;;;4.57;88.98;101301.03;6029457;23;20035;-67
2022/02/22 01:56:54;;;;;;;3.15;2.97;;;;;;;4.64;87.97;101307.03;6012730;23;20033;-67
2022/02/22 01:59:21;;;;;;;3.00;2.90;;;;;;;4.67;89.17;101302.63;6030080;23;20168;-67
2022/02/22 02:01:51;;;;;;;2.95;2.85;;;;;;;4.50;88.55;101296.84;6005257;23;20023;-67
2022/02/22 02:04:17;;;;;;;3.00;2.90;;;;;;;4.07;88.24;101230.03;6033120;23;20271;-67
2022/02/22 02:06:44;;;;;;;3.00;2.90;;;;;;;4.59;88.57;101314.88;6022032;23;20089;-67
2022/02/22 02:09:12;;;;;;;3.60;3.50;;;;;;;4.49;90.17;101319.41;6031807;23;20031;-68
2022/02/22 02:11:47;;;;;;;2.90;2.80;;;;;;;4.46;89.49;101322.03;6021018;23;20019;-67
2022/02/22 02:14:14;;;;;;;3.15;3.05;;;;;;;4.51;90.70;101324.56;5996849;23;20011;-68
2022/02/22 02:16:42;;;;;;;3.20;3.10;;;;;;;4.13;90.11;101268.88;6027524;23;20363;-68
2022/02/22 02:19:13;;;;;;;4.35;4.15;;;;;;;4.54;90.29;101308.91;5986352;23;20023;-67
2022/02/22 02:21:41;;;;;;;3.00;2.90;;;;;;;4.59;90.36;101310.56;6028889;23;20057;-67
2022/02/22 02:24:22;;;;;;;4.57;4.38;;;;;;;4.49;89.75;101327.19;6015984;23;20014;-68
2022/02/22 02:26:50;;;;;;;2.97;2.88;;;;;;;4.42;89.92;101319.53;5998261;23;20038;-67
2022/02/22 02:29:21;;;;;;;3.30;3.20;;;;;;;2.92;90.21;101067.47;6032937;23;20037;-66
2022/02/22 02:31:49;;;;;;;3.00;2.90;;;;;;;2.85;90.24;101075.38;6006190;23;20027;-67
2022/02/22 02:34:19;;;;;;;3.10;3.00;;;;;;;3.29;90.52;101151.66;6009843;23;20002;-66
2022/02/22 02:36:45;;;;;;;2.90;2.80;;;;;;;4.27;91.23;101328.41;6006646;23;20090;-67
2022/02/22 02:39:13;;;;;;;3.00;2.90;;;;;;;4.22;92.15;101330.25;6033998;23;20081;-67
2022/02/22 02:41:42;;;;;;;2.90;2.80;;;;;;;4.22;91.97;101327.66;6042960;23;20051;-67
2022/02/22 02:44:10;;;;;;;7.32;4.32;;;;;;;4.25;92.33;101319.78;5991380;23;20495;-68
2022/02/22 02:46:38;;;;;;;3.00;2.90;;;;;;;3.75;91.81;101263.41;6040303;23;20032;-67
2022/02/22 02:49:07;;;;;;;4.93;4.72;;;;;;;4.15;91.70;101337.25;6038550;23;20022;-67
2022/02/22 02:51:34;;;;;;;2.90;2.80;;;;;;;3.62;91.71;101243.72;6022000;23;20371;-67
2022/02/22 02:54:02;;;;;;;6.35;5.95;;;;;;;4.11;92.15;101339.06;6038991;23;20019;-67
2022/02/22 02:56:28;;;;;;;3.03;2.92;;;;;;;4.13;92.10;101329.50;6024295;23;20011;-67
2022/02/22 02:58:57;;;;;;;4.20;4.00;;;;;;;3.93;92.16;101311.63;6004534;23;20027;-68
2022/02/22 03:01:28;;;;;;;2.90;2.80;;;;;;;4.07;92.39;101336.50;6028340;23;20250;-66
2022/02/22 03:03:55;;;;;;;4.28;4.07;;;;;;;4.05;93.26;101336.56;5993249;23;20022;-68
2022/02/22 03:06:22;;;;;;;3.00;2.90;;;;;;;3.98;93.06;101343.56;6037698;23;20030;-68
2022/02/22 03:08:49;;;;;;;3.17;3.08;;;;;;;3.96;93.28;101345.31;6017322;23;20037;-67
2022/02/22 03:11:16;;;;;;;3.10;3.00;;;;;;;3.36;93.60;101252.72;6025275;23;20026;-68
2022/02/22 03:13:42;;;;;;;2.90;2.80;;;;;;;3.86;93.78;101351.53;6007360;23;20220;-67
2022/02/22 03:16:09;;;;;;;3.30;3.20;;;;;;;3.81;94.61;101337.78;6028764;23;20456;-68
2022/02/22 03:18:36;;;;;;;3.00;2.90;;;;;;;3.74;93.90;101336.13;6030902;23;20070;-68
2022/02/22 03:21:04;;;;;;;4.72;4.53;;;;;;;3.30;94.15;101285.66;5973556;23;20030;-67
2022/02/22 03:23:32;;;;;;;2.90;2.80;;;;;;;3.57;95.11;101342.41;6023326;23;20015;-68
2022/02/22 03:25:58;;;;;;;4.68;4.47;;;;;;;3.10;95.53;101273.78;5996851;23;20370;-68
2022/02/22 03:28:26;;;;;;;3.00;2.90;;;;;;;3.10;96.12;101288.50;6025615;23;20085;-68
2022/02/22 03:30:54;;;;;;;3.85;3.70;;;;;;;3.40;96.17;101336.56;6010545;23;20039;-68
2022/02/22 03:33:21;;;;;;;3.00;2.90;;;;;;;3.40;96.50;101365.09;6034815;23;20090;-67
2022/02/22 03:35:47;;;;;;;3.00;2.90;;;;;;;3.32;96.58;101369.50;6026841;23;20014;-68
2022/02/22 03:38:16;;;;;;;3.42;3.33;;;;;;;3.28;96.84;101370.44;6029447;23;20073;-67
2022/02/22 03:40:43;;;;;;;2.97;2.88;;;;;;;2.57;97.48;101276.09;6015585;23;20025;-67
2022/02/22 03:43:09;;;;;;;3.70;3.53;;;;;;;2.79;97.88;101327.72;6008700;23;20190;-66
2022/02/22 03:45:40;;;;;;;2.80;2.70;;;;;;;2.71;98.01;101317.44;6046664;23;20088;-67
2022/02/22 03:48:07;;;;;;;4.55;4.35;;;;;;;3.16;99.06;101371.41;6006356;23;20179;-67
2022/02/22 03:50:34;;;;;;;2.90;2.80;;;;;;;3.30;98.54;101392.03;6009627;23;20021;-66
2022/02/22 03:53:00;;;;;;;4.82;4.63;;;;;;;2.58;98.24;101264.84;6035838;23;20030;-66
2022/02/22 03:55:27;;;;;;;2.80;2.70;;;;;;;3.26;98.80;101361.81;5999821;23;20165;-66
2022/02/22 03:57:54;;;;;;;4.05;3.88;;;;;;;3.36;98.03;101387.63;6005114;23;20054;-66
2022/02/22 04:00:22;;;;;;;2.90;2.80;;;;;;;3.42;98.59;101389.28;6033295;23;20053;-66
2022/02/22 04:02:49;;;;;;;2.95;2.85;;;;;;;3.39;98.26;101381.56;6039410;23;20046;-66
2022/02/22 04:05:17;;;;;;;3.33;3.00;;;;;;;2.30;98.16;101198.66;6027927;23;20370;-67
2022/02/22 04:07:44;;;;;;;3.00;2.90;;;;;;;2.96;98.08;101318.03;6037216;23;20034;-67
2022/02/22 04:10:12;;;;;;;3.10;3.00;;;;;;;3.38;98.54;101390.19;6019420;23;20033;-67
2022/02/22 04:12:39;;;;;;;2.75;2.65;;;;;;;3.35;98.24;101391.09;5999333;23;20023;-66
2022/02/22 04:15:07;;;;;;;4.28;4.07;;;;;;;2.98;98.32;101341.34;6028095;23;20392;-67
2022/02/22 04:17:33;;;;;;;2.80;2.70;;;;;;;3.17;98.26;101365.38;5997678;23;20437;-67
2022/02/22 04:20:00;;;;;;;4.35;4.15;;;;;;;2.68;98.12;101282.91;6036654;23;20416;-67
2022/02/22 04:22:27;;;;;;;3.00;2.90;;;;;;;3.42;98.18;101398.81;6028328;23;20470;-67
2022/02/22 04:24:54;;;;;;;3.20;3.10;;;;;;;3.04;98.65;101343.88;5996974;23;20090;-67
2022/02/22 04:27:21;;;;;;;3.00;2.90;;;;;;;2.75;98.07;101290.59;6032213;23;20048;-68
2022/02/22 04:29:49;;;;;;;2.80;2.70;;;;;;;3.48;99.16;101402.19;6020302;23;20027;-67
2022/02/22 04:32:16;;;;;;;2.90;2.80;;;;;;;2.85;98.90;101311.25;6009638;23;20015;-67
2022/02/22 04:34:42;;;;;;;2.83;2.72;;;;;;;3.20;98.55;101373.94;6019212;23;20023;-67
2022/02/22 04:37:15;;;;;;;3.72;3.63;;;;;;;3.42;99.14;101407.44;6024116;23;20257;-67
2022/02/22 04:39:45;;;;;;;;;;;;;;;3.30;98.34;101418.81;6034280;23;20095;-67
2022/02/22 04:42:13;;;;;;;4.03;3.88;;;;;;;2.98;99.42;101370.72;5999132;23;19985;-67
2022/02/22 04:44:40;;;;;;;2.97;2.88;;;;;;;2.69;99.49;101328.69;6028702;23;20019;-67
2022/02/22 04:47:07;;;;;;;4.45;4.25;;;;;;;2.63;99.35;101347.75;5986241;23;20057;-66
2022/02/22 04:49:33;;;;;;;3.03;2.92;;;;;;;2.29;100.00;101296.22;6013526;23;20050;-66
2022/02/22 04:52:01;;;;;;;5.10;4.90;;;;;;;3.12;100.00;101424.19;5987315;23;20018;-67
2022/02/22 04:54:27;;;;;;;3.15;3.05;;;;;;;2.60;100.00;101352.94;6021096;23;20370;-67
2022/02/22 04:56:56;;;;;;;3.88;3.72;;;;;;;3.01;100.00;101437.28;5972686;23;20047;-67
2022/02/22 04:59:24;;;;;;;2.90;2.80;;;;;;;2.50;100.00;101369.44;6023910;23;20357;-67
2022/02/22 05:01:51;;;;;;;3.20;3.10;;;;;;;2.98;100.00;101445.06;5999932;23;20067;-67
2022/02/22 05:04:18;;;;;;;2.80;2.70;;;;;;;2.27;100.00;101334.22;6033435;23;20019;-68
2022/02/22 05:06:44;;;;;;;2.83;2.72;;;;;;;2.76;100.00;101423.66;6039691;23;20683;-68
2022/02/22 05:09:11;;;;;;;3.53;3.42;;;;;;;2.88;100.00;101448.59;5966127;23;20488;-67
2022/02/22 05:11:37;;;;;;;3.63;3.42;;;;;;;2.80;100.00;101425.34;6007411;23;20038;-67
2022/02/22 05:14:04;;;;;;;4.35;4.15;;;;;;;2.68;100.00;101408.16;5974334;23;20373;-67
2022/02/22 05:16:32;;;;;;;2.70;2.60;;;;;;;2.93;100.00;101445.13;6027871;23;20099;-67
2022/02/22 05:18:59;;;;;;;4.35;4.15;;;;;;;2.93;100.00;101441.66;6009020;23;20441;-67
2022/02/22 05:21:26;;;;;;;2.92;2.83;;;;;;;2.87;100.00;101439.97;5999878;23;20389;-68
2022/02/22 05:23:52;;;;;;;3.35;3.25;;;;;;;2.64;100.00;101405.59;6008255;23;20021;-68
2022/02/22 05:26:19;;;;;;;2.90;2.80;;;;;;;2.61;100.00;101396.13;6005294;23;20023;-67
2022/02/22 05:28:46;;;;;;;2.75;2.65;;;;;;;2.16;100.00;101329.09;5999035;23;20027;-67
2022/02/22 05:31:13;;;;;;;2.88;2.78;;;;;;;2.82;100.00;101441.75;6018922;23;20064;-67
2022/02/22 05:33:40;;;;;;;2.65;2.55;;;;;;;2.65;100.00;101391.78;6004817;23;20019;-67
2022/02/22 05:36:07;;;;;;;5.65;5.40;;;;;;;2.83;100.00;101440.88;6030189;23;20070;-67
2022/02/22 05:38:33;;;;;;;2.70;2.60;;;;;;;2.69;100.00;101415.06;6015172;23;20471;-68
2022/02/22 05:41:00;;;;;;;4.45;4.25;;;;;;;1.95;100.00;101332.72;6044245;23;20499;-67
2022/02/22 05:43:26;;;;;;;2.70;2.60;;;;;;;2.69;100.00;101451.34;6014926;23;20015;-68
2022/02/22 05:45:54;;;;;;;3.35;3.22;;;;;;;1.79;100.00;101305.22;6017022;23;20019;-68
2022/02/22 05:48:21;;;;;;;2.80;2.70;;;;;;;2.53;100.00;101445.41;6008198;23;20234;-68
2022/02/22 05:50:48;;;;;;;2.78;2.67;;;;;;;2.55;100.00;101458.38;5993235;23;20245;-68
2022/02/22 05:53:14;;;;;;;2.88;2.78;;;;;;;2.17;100.00;101415.44;6028071;23;20364;-67
2022/02/22 05:55:42;;;;;;;2.90;2.80;;;;;;;2.32;100.00;101450.72;6025466;23;20033;-68
2022/02/22 05:58:08;;;;;;;3.78;3.67;;;;;;;1.91;100.00;101382.78;5996429;23;20035;-68
2022/02/22 06:00:35;;;;;;;2.78;2.67;;;;;;;2.02;100.00;101413.78;6035256;23;20090;-68
2022/02/22 06:03:01;;;;;;;4.35;4.15;;;;;;;2.34;100.00;101482.66;6005228;23;20044;-67
2022/02/22 06:05:27;;;;;;;2.80;2.70;;;;;;;2.35;100.00;101481.81;6006796;23;20385;-68
2022/02/22 06:07:58;;;;;;;5.05;4.82;;;;;;;2.32;100.00;101487.00;5995982;23;20006;-67
2022/02/22 06:10:28;;;;;;;2.90;2.80;;;;;;;1.94;100.00;101429.34;6025223;23;20039;-67
2022/02/22 06:12:54;;;;;;;3.30;3.20;;;;;;;2.12;100.00;101490.53;6003310;23;20117;-67
2022/02/22 06:15:22;;;;;;;3.20;3.10;;;;;;;2.15;100.00;101495.72;6020807;23;20018;-67
2022/02/22 06:17:49;;;;;;;3.00;2.90;;;;;;;0.62;100.00;101268.63;6004315;23;20082;-68
2022/02/22 06:20:16;;;;;;;2.90;2.80;;;;;;;2.16;100.00;101491.38;6028726;23;20050;-67
2022/02/22 06:22:45;;;;;;;2.80;2.70;;;;;;;1.78;100.00;101448.41;6003515;23;20066;-68
2022/02/22 06:25:12;;;;;;;3.80;3.70;;;;;;;2.14;100.00;101499.16;6022941;23;20086;-67
2022/02/22 06:27:46;;;;;;;3.00;2.90;;;;;;;2.18;100.00;101512.94;5999133;23;20035;-67
2022/02/22 06:30:13;;;;;;;3.50;3.40;;;;;;;2.22;100.00;101524.16;6029663;23;20010;-68
2022/02/22 06:32:41;;;;;;;3.00;2.90;;;;;;;1.82;100.00;101452.69;6011266;23;20086;-67
2022/02/22 06:35:08;;;;;;;5.75;5.50;;;;;;;2.00;100.00;101488.00;5981659;23;20016;-67
2022/02/22 06:37:35;;;;;;;2.90;2.80;;;;;;;2.33;100.00;101525.00;5997073;23;20234;-67
2022/02/22 06:40:05;;;;;;;4.55;4.35;;;;;;;1.72;100.00;101402.69;6022138;23;20031;-67
2022/02/22 06:42:33;;;;;;;2.90;2.80;;;;;;;2.47;100.00;101528.38;6011136;23;20038;-68
2022/02/22 06:45:00;;;;;;;4.70;4.50;;;;;;;2.08;100.00;101467.25;5995983;23;20034;-68
2022/02/22 06:47:26;;;;;;;3.20;3.10;;;;;;;2.25;100.00;101496.53;6015113;23;20393;-68
2022/02/22 06:49:53;;;;;;;4.55;4.35;;;;;;;2.56;100.00;101532.63;5998665;23;20031;-68
2022/02/22 06:52:20;;;;;;;3.63;3.45;;;;;;;2.61;100.00;101536.06;6000317;23;20129;-68
2022/02/22 06:54:47;;;;;;;3.00;2.90;;;;;;;2.74;100.00;101542.03;5968943;23;20528;-68
2022/02/22 06:57:13;;;;;;;3.05;2.95;;;;;;;2.73;100.00;101529.94;6007458;23;20015;-68
2022/02/22 06:59:40;;;;;;;3.05;2.95;;;;;;;2.30;100.00;101476.63;5997167;23;20039;-68
2022/02/22 07:02:07;;;;;;;3.40;3.30;;;;;;;2.10;100.00;101435.31;5997138;23;20092;-68
2022/02/22 07:04:34;;;;;;;2.80;2.70;;;;;;;2.37;100.00;101480.06;6028646;23;20018;-68
2022/02/22 07:07:01;;;;;;;2.92;2.83;;;;;;;2.66;100.00;101534.28;5995693;23;20035;-68
2022/02/22 07:09:29;;;;;;;12.32;3.28;;;;;;;2.27;100.00;101461.13;6015900;23;20048;-68
2022/02/22 07:11:55;;;;;;;4.13;3.92;;;;;;;2.60;100.00;101526.56;5967981;23;20783;-68
2022/02/22 07:14:22;;;;;;;3.10;3.00;;;;;;;2.35;100.00;101490.44;6019405;23;20022;-68
2022/02/22 07:16:48;;;;;;;4.88;4.65;;;;;;;2.57;100.00;101539.53;5986068;23;20078;-68
2022/02/22 07:19:15;;;;;;;3.20;3.10;;;;;;;2.65;100.00;101539.50;6029568;23;20047;-67
2022/02/22 07:21:41;;;;;;;4.45;4.25;;;;;;;2.72;100.00;101542.03;6024740;23;20389;-68
2022/02/22 07:24:07;;;;;;;2.90;2.80;;;;;;;2.45;100.00;101460.16;5995824;23;20240;-68
2022/02/22 07:26:36;;;;;;;3.10;3.00;;;;;;;2.60;100.00;101460.03;5998164;23;20200;-69
2022/02/22 07:29:03;;;;;;;3.08;2.97;;;;;;;3.25;100.00;101544.25;5996376;23;20025;-68
2022/02/22 07:31:30;;;;;;;3.08;2.97;;;;;;;3.36;100.00;101538.09;5974787;23;20015;-68
2022/02/22 07:33:56;;;;;;;4.00;3.80;;;;;;;3.35;100.00;101530.34;6022215;23;20042;-67
2022/02/22 07:36:23;;;;;;;4.15;3.95;;;;;;;3.56;100.00;101542.25;6031310;23;20333;-67
2022/02/22 07:38:49;;;;;;;4.60;4.40;;;;;;;3.19;100.00;101472.56;6042928;23;20050;-67
2022/02/22 07:41:22;;;;;;;4.43;4.20;;;;;;;3.72;100.00;101532.56;6039019;23;20167;-67
2022/02/22 07:43:50;;;;;;;;;;;;;;;3.88;100.00;101539.31;6028013;23;20022;-67
2022/02/22 07:46:19;;;;;;;3.00;2.90;;;;;;;3.85;100.00;101531.59;6031410;23;19962;-67
2022/02/22 07:48:47;;;;;;;3.28;3.17;;;;;;;4.01;98.75;101545.25;6004855;23;20090;-68
2022/02/22 07:51:18;;;;;;;3.30;3.20;;;;;;;4.14;98.47;101540.75;6031687;23;20097;-68
2022/02/22 07:53:46;;;;;;;4.72;4.53;;;;;;;3.53;98.19;101425.50;6030358;23;20027;-70
2022/02/22 07:56:13;;;;;;;3.20;3.10;;;;;;;4.33;98.39;101546.59;6022434;23;20075;-67
2022/02/22 07:58:40;;;;;;;3.30;3.20;;;;;;;3.95;96.87;101470.88;5988411;23;20034;-68
2022/02/22 08:01:11;;;;;;;3.30;3.20;;;;;;;4.52;96.43;101544.63;6029671;23;20026;-68
2022/02/22 08:03:38;;;;;;;2.97;2.88;;;;;;;4.39;95.54;101512.75;5987728;23;20025;-68
2022/02/22 08:06:05;;;;;;;3.30;3.20;;;;;;;4.50;95.04;101528.19;6015856;23;20464;-69
2022/02/22 08:08:32;;;;;;;3.30;3.20;;;;;;;4.24;94.65;101490.41;6002404;23;20015;-68
2022/02/22 08:10:58;;;;;;;3.13;3.03;;;;;;;4.68;93.56;101556.53;6019530;23;20498;-67
2022/02/22 08:13:24;;;;;;;3.20;3.10;;;;;;;4.77;94.48;101550.31;6015564;23;20317;-67
2022/02/22 08:15:51;;;;;;;4.88;4.68;;;;;;;4.78;92.85;101550.31;5987407;23;20027;-67
2022/02/22 08:18:17;;;;;;;3.20;3.10;;;;;;;4.38;92.93;101467.69;6015174;23;20011;-67
2022/02/22 08:20:44;;;;;;;4.53;4.32;;;;;;;4.99;92.58;101571.66;5999159;23;20040;-68
2022/02/22 08:23:10;;;;;;;3.28;3.17;;;;;;;4.69;92.67;101469.84;6009995;23;20089;-67
2022/02/22 08:25:37;;;;;;;3.40;3.30;;;;;;;4.69;91.50;101432.56;6004793;23;20015;-67
2022/02/22 08:28:11;;;;;;;3.30;3.20;;;;;;;5.52;92.06;101532.66;6014023;23;20018;-68
2022/02/22 08:30:38;;;;;;;3.38;3.28;;;;;;;5.38;90.66;101497.31;6040190;23;20076;-68
2022/02/22 08:33:06;;;;;;;3.30;3.20;;;;;;;4.83;89.82;101399.44;6027399;23;20101;-67
2022/02/22 08:35:34;;;;;;;3.30;3.20;;;;;;;5.08;88.52;101438.84;5995332;23;20445;-68
2022/02/22 08:38:01;;;;;;;3.40;3.30;;;;;;;5.71;89.26;101525.34;6023416;23;20394;-67
2022/02/22 08:40:28;;;;;;;3.30;3.20;;;;;;;5.82;89.15;101510.41;6024407;23;21247;-68
2022/02/22 08:42:57;;;;;;;3.95;3.78;;;;;;;5.34;88.33;101399.34;5981399;23;20484;-68
2022/02/22 08:45:25;;;;;;;3.30;3.20;;;;;;;5.82;88.01;101496.53;5984795;23;20264;-67
2022/02/22 08:47:53;;;;;;;6.43;5.68;;;;;;;6.23;87.90;101502.66;6011394;23;20023;-68
2022/02/22 08:50:20;;;;;;;3.42;3.33;;;;;;;5.90;86.06;101424.28;5998939;23;20032;-68
2022/02/22 08:52:47;;;;;;;5.10;4.90;;;;;;;6.49;85.52;101508.16;6031811;23;20092;-69
2022/02/22 08:55:14;;;;;;;4.75;4.55;;;;;;;6.56;85.52;101504.53;5995370;23;20027;-69
2022/02/22 08:57:40;;;;;;;3.83;3.67;;;;;;;6.53;85.06;101507.19;5997614;23;20087;-67
2022/02/22 09:00:10;;;;;;;3.40;3.30;;;;;;;6.21;84.83;101457.53;6024473;23;20031;-67
2022/02/22 09:02:41;;;;;;;3.50;3.40;;;;;;;6.34;84.82;101483.28;5999747;23;20074;-68
2022/02/22 09:05:09;;;;;;;3.60;3.50;;;;;;;6.30;85.35;101472.97;6020625;23;20082;-68
2022/02/22 09:07:37;;;;;;;3.80;3.60;;;;;;;6.46;86.02;101486.53;6004794;23;20435;-68
2022/02/22 09:10:06;;;;;;;3.42;3.33;;;;;;;6.54;86.33;101501.09;6008474;23;20528;-68
2022/02/22 09:12:33;;;;;;;3.55;3.45;;;;;;;6.65;85.79;101495.63;5986428;23;21107;-68
2022/02/22 09:15:00;;;;;;;4.00;3.80;;;;;;;6.37;86.07;101445.88;6020651;23;20682;-68
2022/02/22 09:17:27;;;;;;;4.43;4.22;;;;;;;6.22;86.03;101418.41;5999520;23;20031;-68
2022/02/22 09:19:54;;;;;;;5.00;4.75;;;;;;;6.73;84.64;101493.69;5999020;23;20034;-68
2022/02/22 09:22:20;;;;;;;3.70;3.60;;;;;;;6.63;85.08;101455.69;6036551;23;20046;-68
2022/02/22 09:24:47;;;;;;;4.68;4.47;;;;;;;6.76;84.47;101483.22;6002523;23;20031;-68
2022/02/22 09:27:13;;;;;;;3.75;3.65;;;;;;;6.84;84.56;101483.03;6027647;23;20027;-68
2022/02/22 09:29:45;;;;;;;5.05;4.85;;;;;;;6.72;84.20;101434.63;6020723;23;20044;-68
2022/02/22 09:32:12;;;;;;;3.88;3.67;;;;;;;7.13;84.39;101471.00;6044333;23;20077;-68
2022/02/22 09:34:39;;;;;;;3.67;3.55;;;;;;;7.09;83.19;101443.28;6029782;23;20015;-68
2022/02/22 09:37:08;;;;;;;3.70;3.60;;;;;;;7.24;82.27;101455.09;5988636;23;20336;-69
2022/02/22 09:39:36;;;;;;;3.30;3.20;;;;;;;7.39;81.21;101458.13;6031799;23;20038;-67
2022/02/22 09:42:07;;;;;;;3.53;3.42;;;;;;;7.54;81.03;101443.81;6022846;23;20033;-68
2022/02/22 09:44:37;;;;;;;3.70;3.60;;;;;;;7.60;80.99;101448.00;6037266;23;20261;-68
2022/02/22 09:47:06;;;;;;;3.80;3.70;;;;;;;7.57;80.40;101435.03;6042322;23;20050;-67
2022/02/22 09:49:33;;;;;;;3.70;3.60;;;;;;;7.66;80.55;101423.44;6014625;23;20064;-68
2022/02/22 09:51:59;;;;;;;3.78;3.63;;;;;;;8.00;80.01;101431.19;6009252;23;20025;-67
2022/02/22 09:54:27;;;;;;;3.70;3.60;;;;;;;7.31;77.58;101334.75;6030961;23;20031;-67
2022/02/22 09:56:57;;;;;;;5.88;5.57;;;;;;;7.38;78.19;101323.25;6014702;23;20078;-67
2022/02/22 09:59:24;;;;;;;3.70;3.60;;;;;;;8.02;76.29;101429.38;6026621;23;20030;-67
2022/02/22 10:01:54;;;;;;;7.28;5.45;;;;;;;8.03;76.55;101407.56;5996071;23;20027;-67
2022/02/22 10:04:21;;;;;;;4.35;4.10;;;;;;;8.33;76.61;101423.22;5998090;23;20145;-67
2022/02/22 10:06:50;;;;;;;5.28;5.05;;;;;;;8.33;75.84;101421.44;5885176;23;20034;-67
2022/02/22 10:09:19;;;;;;;4.22;4.03;;;;;;;8.35;75.96;101421.41;5987469;23;20106;-67
2022/02/22 10:11:50;;;;;;;5.35;5.15;;;;;;;8.24;74.91;101413.03;6012137;23;20090;-68
2022/02/22 10:14:23;;;;;;;3.80;3.70;;;;;;;8.31;74.55;101410.19;5990691;23;20192;-67
2022/02/22 10:16:53;;;;;;;5.13;4.93;;;;;;;8.01;74.71;101337.94;5994763;23;20034;-68
2022/02/22 10:19:30;;;;;;;4.00;3.80;;;;;;;8.42;74.32;101411.63;6000594;23;20031;-68
2022/02/22 10:21:57;;;;;;;5.40;5.20;;;;;;;8.39;73.98;101402.09;6013699;23;20275;-68
2022/02/22 10:24:27;;;;;;;4.22;4.03;;;;;;;8.49;73.88;101408.78;5992028;23;20043;-71
2022/02/22 10:27:06;;;;;;;5.25;5.05;;;;;;;7.73;73.10;101304.81;6027781;23;20599;-69
2022/02/22 10:29:35;;;;;;;4.10;3.90;;;;;;;7.76;74.72;101289.06;6015539;23;20081;-67
2022/02/22 10:32:16;;;;;;;3.90;3.80;;;;;;;8.59;73.80;101417.19;6009352;23;20809;-68
2022/02/22 10:34:43;;;;;;;4.32;4.13;;;;;;;8.54;73.27;101408.66;6031705;23;20038;-70
2022/02/22 10:37:10;;;;;;;4.20;4.00;;;;;;;7.83;73.16;101303.63;6031377;23;20084;-75
2022/02/22 10:39:37;;;;;;;4.10;3.90;;;;;;;8.38;74.06;101408.25;6003420;23;20081;-69
2022/02/22 10:42:05;;;;;;;4.40;4.20;;;;;;;7.79;73.74;101341.19;6010556;23;20040;-70
2022/02/22 10:44:35;;;;;;;3.78;3.67;;;;;;;7.84;74.73;101354.13;6003380;23;20015;-70
2022/02/22 10:47:25;;;;;;;4.30;4.00;;;;;;;8.25;75.36;101435.66;6026121;23;20034;-72
2022/02/22 10:49:52;;;;;;;5.00;4.80;;;;;;;8.23;74.51;101454.00;6012669;23;20307;-70
2022/02/22 10:52:29;;;;;;;4.00;3.80;;;;;;;7.88;74.86;101387.13;5985827;23;20030;-70
2022/02/22 10:55:01;;;;;;;5.18;4.97;;;;;;;8.29;74.80;101439.91;5992280;23;20031;-71
2022/02/22 10:57:31;;;;;;;3.83;3.72;;;;;;;7.98;74.69;101407.72;6015030;23;20029;-69
2022/02/22 10:59:58;;;;;;;4.00;3.80;;;;;;;8.26;74.40;101445.22;5993975;23;20030;-69
2022/02/22 11:02:25;;;;;;;4.00;3.80;;;;;;;8.36;74.80;101437.06;6027091;23;20272;-68
2022/02/22 11:04:55;;;;;;;5.40;5.00;;;;;;;8.41;75.14;101452.63;5992166;23;20034;-69
2022/02/22 11:07:26;;;;;;;3.75;3.65;;;;;;;8.28;73.96;101415.53;6022781;23;20061;-69
2022/02/22 11:09:55;;;;;;;;;;;;;;;8.38;74.79;101427.41;6001729;23;20154;-68
2022/02/22 11:12:27;;;;;;;4.03;3.83;;;;;;;8.05;75.24;101370.91;6025241;23;20285;-69
2022/02/22 11:15:12;;;;;;;5.00;4.80;;;;;;;8.23;77.36;101395.63;5999653;23;20022;-69
2022/02/22 11:17:50;;;;;;;4.38;4.07;;;;;;;8.39;77.58;101384.63;6024338;23;20053;-68
2022/02/22 11:20:32;;;;;;;3.80;3.70;;;;;;;7.81;77.28;101257.56;5990759;23;20024;-71
2022/02/22 11:23:01;;;;;;;3.70;3.53;;;;;;;8.43;76.61;101385.44;6005852;23;20030;-70
2022/02/22 11:25:33;;;;;;;3.92;3.75;;;;;;;8.38;77.24;101369.00;5998104;23;20292;-71
2022/02/22 11:28:08;;;;;;;3.70;3.60;;;;;;;8.35;75.79;101349.03;6024562;23;20019;-71
2022/02/22 11:30:38;;;;;;;3.65;3.55;;;;;;;8.55;75.01;101365.88;6006325;23;20098;-70
2022/02/22 11:33:10;;;;;;;10.15;4.70;;;;;;;8.28;73.96;101337.06;6033863;23;20015;-70
2022/02/22 11:35:44;;;;;;;3.70;3.60;;;;;;;8.15;74.05;101314.81;6032566;23;20384;-70